sensor_id;sensor_type;location;lat;lon;timestamp;P1;durP1;ratioP1;P2;durP2;ratioP2
78889;SDS011;68279;48.964;14.502;2023-05-10T00:00:20;2.92;;;1.60;;
78889;SDS011;68279;48.964;14.502;2023-05-10T00:02:47;3.67;;;2.47;;
78889;SDS011;68279;48.964;14.502;2023-05-10T00:05:13;5.40;;;2.95;;
78889;SDS011;68279;48.964;14.502;2023-05-10T00:07:39;4.53;;;2.53;;
78889;SDS011;68279;48.964;14.502;2023-05-10T00:10:04;4.05;;;1.98;;
78889;SDS011;68279;48.964;14.502;2023-05-10T00:12:30;5.75;;;2.95;;
78889;SDS011;68279;48.964;14.502;2023-05-10T00:14:56;5.45;;;2.42;;
78889;SDS011;68279;48.964;14.502;2023-05-10T00:17:22;7.50;;;2.75;;
78889;SDS011;68279;48.964;14.502;2023-05-10T00:19:47;4.18;;;2.38;;
78889;SDS011;68279;48.964;14.502;2023-05-10T00:22:13;5.13;;;2.13;;
78889;SDS011;68279;48.964;14.502;2023-05-10T00:24:38;3.65;;;2.08;;
78889;SDS011;68279;48.964;14.502;2023-05-10T00:27:04;4.65;;;2.47;;
78889;SDS011;68279;48.964;14.502;2023-05-10T00:29:30;3.97;;;2.60;;
78889;SDS011;68279;48.964;14.502;2023-05-10T00:31:56;4.85;;;2.85;;
78889;SDS011;68279;48.964;14.502;2023-05-10T00:34:22;4.28;;;2.47;;
78889;SDS011;68279;48.964;14.502;2023-05-10T00:36:48;5.90;;;2.85;;
78889;SDS011;68279;48.964;14.502;2023-05-10T00:39:13;5.20;;;3.20;;
78889;SDS011;68279;48.964;14.502;2023-05-10T00:41:39;5.50;;;2.67;;
78889;SDS011;68279;48.964;14.502;2023-05-10T00:44:04;4.60;;;3.00;;
78889;SDS011;68279;48.964;14.502;2023-05-10T00:46:30;5.50;;;2.90;;
78889;SDS011;68279;48.964;14.502;2023-05-10T00:48:56;4.43;;;2.22;;
78889;SDS011;68279;48.964;14.502;2023-05-10T00:51:22;4.78;;;2.72;;
78889;SDS011;68279;48.964;14.502;2023-05-10T00:53:48;6.03;;;2.42;;
78889;SDS011;68279;48.964;14.502;2023-05-10T00:56:15;3.88;;;2.05;;
78889;SDS011;68279;48.964;14.502;2023-05-10T00:58:41;4.03;;;2.17;;
78889;SDS011;68279;48.964;14.502;2023-05-10T01:01:07;5.45;;;2.67;;
78889;SDS011;68279;48.964;14.502;2023-05-10T01:03:34;5.07;;;2.40;;
78889;SDS011;68279;48.964;14.502;2023-05-10T01:06:01;4.78;;;2.70;;
78889;SDS011;68279;48.964;14.502;2023-05-10T01:08:27;2.50;;;1.52;;
78889;SDS011;68279;48.964;14.502;2023-05-10T01:10:53;4.40;;;1.85;;
78889;SDS011;68279;48.964;14.502;2023-05-10T01:13:41;4.28;;;2.33;;
78889;SDS011;68279;48.964;14.502;2023-05-10T01:16:07;2.90;;;1.60;;
78889;SDS011;68279;48.964;14.502;2023-05-10T01:18:35;4.03;;;2.17;;
78889;SDS011;68279;48.964;14.502;2023-05-10T01:34:19;4.85;;;2.47;;
78889;SDS011;68279;48.964;14.502;2023-05-10T01:36:55;4.22;;;2.28;;
78889;SDS011;68279;48.964;14.502;2023-05-10T01:42:16;5.28;;;2.03;;
78889;SDS011;68279;48.964;14.502;2023-05-10T01:44:56;5.32;;;3.08;;
78889;SDS011;68279;48.964;14.502;2023-05-10T01:47:35;3.58;;;2.08;;
78889;SDS011;68279;48.964;14.502;2023-05-10T01:50:06;2.88;;;1.52;;
78889;SDS011;68279;48.964;14.502;2023-05-10T01:52:41;4.18;;;2.17;;
78889;SDS011;68279;48.964;14.502;2023-05-10T01:55:09;4.32;;;2.55;;
78889;SDS011;68279;48.964;14.502;2023-05-10T01:57:39;3.75;;;1.98;;
78889;SDS011;68279;48.964;14.502;2023-05-10T02:00:07;5.45;;;1.95;;
78889;SDS011;68279;48.964;14.502;2023-05-10T02:02:38;3.90;;;2.15;;
78889;SDS011;68279;48.964;14.502;2023-05-10T02:05:07;4.40;;;2.15;;
78889;SDS011;68279;48.964;14.502;2023-05-10T02:07:35;7.13;;;3.42;;
78889;SDS011;68279;48.964;14.502;2023-05-10T02:10:02;4.07;;;2.67;;
78889;SDS011;68279;48.964;14.502;2023-05-10T02:12:35;4.07;;;2.35;;
78889;SDS011;68279;48.964;14.502;2023-05-10T02:15:02;5.07;;;3.00;;
78889;SDS011;68279;48.964;14.502;2023-05-10T02:17:30;4.97;;;2.67;;
78889;SDS011;68279;48.964;14.502;2023-05-10T02:19:58;5.75;;;2.88;;
78889;SDS011;68279;48.964;14.502;2023-05-10T02:22:25;4.18;;;1.80;;
78889;SDS011;68279;48.964;14.502;2023-05-10T02:24:53;4.25;;;2.33;;
78889;SDS011;68279;48.964;14.502;2023-05-10T02:27:23;5.68;;;2.55;;
78889;SDS011;68279;48.964;14.502;2023-05-10T02:29:50;2.90;;;1.63;;
78889;SDS011;68279;48.964;14.502;2023-05-10T02:32:16;4.57;;;2.15;;
78889;SDS011;68279;48.964;14.502;2023-05-10T02:34:43;5.15;;;1.98;;
78889;SDS011;68279;48.964;14.502;2023-05-10T02:37:11;4.68;;;2.38;;
78889;SDS011;68279;48.964;14.502;2023-05-10T02:39:39;2.78;;;1.40;;
78889;SDS011;68279;48.964;14.502;2023-05-10T02:42:13;4.05;;;1.67;;
78889;SDS011;68279;48.964;14.502;2023-05-10T02:44:42;5.10;;;2.15;;
78889;SDS011;68279;48.964;14.502;2023-05-10T02:47:10;3.50;;;2.30;;
78889;SDS011;68279;48.964;14.502;2023-05-10T02:49:36;4.05;;;2.28;;
78889;SDS011;68279;48.964;14.502;2023-05-10T02:52:03;4.15;;;2.15;;
78889;SDS011;68279;48.964;14.502;2023-05-10T02:54:33;3.58;;;1.92;;
78889;SDS011;68279;48.964;14.502;2023-05-10T02:57:03;4.20;;;2.35;;
78889;SDS011;68279;48.964;14.502;2023-05-10T02:59:30;3.08;;;1.77;;
78889;SDS011;68279;48.964;14.502;2023-05-10T03:01:58;4.03;;;2.10;;
78889;SDS011;68279;48.964;14.502;2023-05-10T03:04:25;4.63;;;2.50;;
78889;SDS011;68279;48.964;14.502;2023-05-10T03:06:51;3.45;;;1.83;;
78889;SDS011;68279;48.964;14.502;2023-05-10T03:09:17;3.75;;;2.17;;
78889;SDS011;68279;48.964;14.502;2023-05-10T03:20:26;3.20;;;1.77;;
78889;SDS011;68279;48.964;14.502;2023-05-10T03:23:00;3.85;;;2.15;;
78889;SDS011;68279;48.964;14.502;2023-05-10T03:25:31;3.03;;;2.05;;
78889;SDS011;68279;48.964;14.502;2023-05-10T03:27:57;6.75;;;2.17;;
78889;SDS011;68279;48.964;14.502;2023-05-10T03:30:24;4.72;;;3.05;;
78889;SDS011;68279;48.964;14.502;2023-05-10T03:32:50;5.90;;;2.08;;
78889;SDS011;68279;48.964;14.502;2023-05-10T03:35:16;3.78;;;2.20;;
78889;SDS011;68279;48.964;14.502;2023-05-10T03:37:41;4.15;;;2.40;;
78889;SDS011;68279;48.964;14.502;2023-05-10T03:40:07;4.45;;;2.15;;
78889;SDS011;68279;48.964;14.502;2023-05-10T03:42:33;5.47;;;2.55;;
78889;SDS011;68279;48.964;14.502;2023-05-10T03:44:59;5.53;;;2.05;;
78889;SDS011;68279;48.964;14.502;2023-05-10T03:47:24;4.60;;;2.33;;
78889;SDS011;68279;48.964;14.502;2023-05-10T03:49:50;4.40;;;2.17;;
78889;SDS011;68279;48.964;14.502;2023-05-10T03:52:16;6.97;;;3.13;;
78889;SDS011;68279;48.964;14.502;2023-05-10T03:54:41;4.18;;;2.63;;
78889;SDS011;68279;48.964;14.502;2023-05-10T03:57:07;6.13;;;2.95;;
78889;SDS011;68279;48.964;14.502;2023-05-10T03:59:32;5.80;;;1.77;;
78889;SDS011;68279;48.964;14.502;2023-05-10T04:01:58;7.90;;;3.05;;
78889;SDS011;68279;48.964;14.502;2023-05-10T04:04:24;5.07;;;2.33;;
78889;SDS011;68279;48.964;14.502;2023-05-10T04:06:49;1.85;;;1.20;;
78889;SDS011;68279;48.964;14.502;2023-05-10T04:09:15;6.78;;;2.42;;
78889;SDS011;68279;48.964;14.502;2023-05-10T04:11:41;4.38;;;2.03;;
78889;SDS011;68279;48.964;14.502;2023-05-10T04:14:07;4.43;;;2.47;;
78889;SDS011;68279;48.964;14.502;2023-05-10T04:16:33;4.03;;;2.13;;
78889;SDS011;68279;48.964;14.502;2023-05-10T04:19:01;5.70;;;3.00;;
78889;SDS011;68279;48.964;14.502;2023-05-10T04:21:27;3.78;;;2.28;;
78889;SDS011;68279;48.964;14.502;2023-05-10T04:23:53;3.33;;;1.83;;
78889;SDS011;68279;48.964;14.502;2023-05-10T04:26:19;3.45;;;2.05;;
78889;SDS011;68279;48.964;14.502;2023-05-10T04:28:45;3.50;;;2.00;;
78889;SDS011;68279;48.964;14.502;2023-05-10T04:31:11;3.40;;;1.73;;
78889;SDS011;68279;48.964;14.502;2023-05-10T04:33:36;4.45;;;2.70;;
78889;SDS011;68279;48.964;14.502;2023-05-10T04:36:02;4.20;;;2.63;;
78889;SDS011;68279;48.964;14.502;2023-05-10T04:38:28;4.80;;;2.80;;
78889;SDS011;68279;48.964;14.502;2023-05-10T04:41:03;4.78;;;2.58;;
78889;SDS011;68279;48.964;14.502;2023-05-10T04:43:32;4.63;;;2.13;;
78889;SDS011;68279;48.964;14.502;2023-05-10T04:45:58;3.45;;;2.00;;
78889;SDS011;68279;48.964;14.502;2023-05-10T04:48:24;5.30;;;2.65;;
78889;SDS011;68279;48.964;14.502;2023-05-10T04:50:50;4.63;;;2.55;;
78889;SDS011;68279;48.964;14.502;2023-05-10T04:53:15;3.63;;;1.67;;
78889;SDS011;68279;48.964;14.502;2023-05-10T04:55:41;4.50;;;2.15;;
78889;SDS011;68279;48.964;14.502;2023-05-10T04:58:07;5.10;;;2.78;;
78889;SDS011;68279;48.964;14.502;2023-05-10T05:00:32;4.63;;;2.75;;
78889;SDS011;68279;48.964;14.502;2023-05-10T05:03:04;4.35;;;2.20;;
78889;SDS011;68279;48.964;14.502;2023-05-10T05:05:30;4.68;;;2.83;;
78889;SDS011;68279;48.964;14.502;2023-05-10T05:07:56;5.47;;;2.78;;
78889;SDS011;68279;48.964;14.502;2023-05-10T05:10:21;4.38;;;2.20;;
78889;SDS011;68279;48.964;14.502;2023-05-10T05:12:47;2.22;;;1.33;;
78889;SDS011;68279;48.964;14.502;2023-05-10T05:15:13;4.25;;;2.03;;
78889;SDS011;68279;48.964;14.502;2023-05-10T05:17:38;5.65;;;2.70;;
78889;SDS011;68279;48.964;14.502;2023-05-10T05:20:04;5.45;;;2.35;;
78889;SDS011;68279;48.964;14.502;2023-05-10T05:22:30;4.95;;;2.35;;
78889;SDS011;68279;48.964;14.502;2023-05-10T05:24:56;5.00;;;2.35;;
78889;SDS011;68279;48.964;14.502;2023-05-10T05:27:23;7.10;;;2.92;;
78889;SDS011;68279;48.964;14.502;2023-05-10T05:29:52;3.75;;;1.85;;
78889;SDS011;68279;48.964;14.502;2023-05-10T05:32:18;4.00;;;2.08;;
78889;SDS011;68279;48.964;14.502;2023-05-10T05:34:44;6.32;;;2.38;;
78889;SDS011;68279;48.964;14.502;2023-05-10T05:37:14;3.03;;;1.80;;
78889;SDS011;68279;48.964;14.502;2023-05-10T05:39:40;4.13;;;2.28;;
78889;SDS011;68279;48.964;14.502;2023-05-10T05:42:08;4.43;;;2.33;;
78889;SDS011;68279;48.964;14.502;2023-05-10T05:44:37;3.88;;;1.88;;
78889;SDS011;68279;48.964;14.502;2023-05-10T05:47:03;4.72;;;2.30;;
78889;SDS011;68279;48.964;14.502;2023-05-10T05:49:29;4.65;;;2.92;;
78889;SDS011;68279;48.964;14.502;2023-05-10T05:51:58;5.47;;;3.10;;
78889;SDS011;68279;48.964;14.502;2023-05-10T05:54:27;6.07;;;2.63;;
78889;SDS011;68279;48.964;14.502;2023-05-10T05:56:56;4.65;;;2.47;;
78889;SDS011;68279;48.964;14.502;2023-05-10T05:59:22;5.90;;;2.85;;
78889;SDS011;68279;48.964;14.502;2023-05-10T06:01:48;5.32;;;2.42;;
78889;SDS011;68279;48.964;14.502;2023-05-10T06:04:15;6.05;;;2.30;;
78889;SDS011;68279;48.964;14.502;2023-05-10T06:06:40;5.28;;;2.72;;
78889;SDS011;68279;48.964;14.502;2023-05-10T06:09:06;8.77;;;2.53;;
78889;SDS011;68279;48.964;14.502;2023-05-10T06:11:31;3.97;;;2.28;;
78889;SDS011;68279;48.964;14.502;2023-05-10T06:13:58;3.85;;;2.50;;
78889;SDS011;68279;48.964;14.502;2023-05-10T06:16:24;4.55;;;2.15;;
78889;SDS011;68279;48.964;14.502;2023-05-10T06:18:50;2.90;;;1.92;;
78889;SDS011;68279;48.964;14.502;2023-05-10T06:21:16;4.30;;;2.25;;
78889;SDS011;68279;48.964;14.502;2023-05-10T06:23:41;4.60;;;2.83;;
78889;SDS011;68279;48.964;14.502;2023-05-10T06:26:07;3.80;;;2.13;;
78889;SDS011;68279;48.964;14.502;2023-05-10T06:28:33;3.30;;;2.20;;
78889;SDS011;68279;48.964;14.502;2023-05-10T06:30:59;4.47;;;1.98;;
78889;SDS011;68279;48.964;14.502;2023-05-10T06:33:24;3.65;;;2.65;;
78889;SDS011;68279;48.964;14.502;2023-05-10T06:35:51;6.25;;;2.65;;
78889;SDS011;68279;48.964;14.502;2023-05-10T06:38:16;4.68;;;2.78;;
78889;SDS011;68279;48.964;14.502;2023-05-10T06:40:42;4.05;;;2.20;;
78889;SDS011;68279;48.964;14.502;2023-05-10T06:43:08;3.35;;;2.03;;
78889;SDS011;68279;48.964;14.502;2023-05-10T06:45:34;4.03;;;2.22;;
78889;SDS011;68279;48.964;14.502;2023-05-10T06:47:59;3.55;;;2.10;;
78889;SDS011;68279;48.964;14.502;2023-05-10T06:50:26;5.32;;;2.70;;
78889;SDS011;68279;48.964;14.502;2023-05-10T06:52:51;5.30;;;2.53;;
78889;SDS011;68279;48.964;14.502;2023-05-10T06:55:17;3.35;;;1.90;;
78889;SDS011;68279;48.964;14.502;2023-05-10T06:57:42;3.90;;;1.95;;
78889;SDS011;68279;48.964;14.502;2023-05-10T07:00:08;6.60;;;2.45;;
78889;SDS011;68279;48.964;14.502;2023-05-10T07:02:35;4.25;;;2.33;;
78889;SDS011;68279;48.964;14.502;2023-05-10T07:05:01;4.88;;;2.30;;
78889;SDS011;68279;48.964;14.502;2023-05-10T07:07:27;4.28;;;1.90;;
78889;SDS011;68279;48.964;14.502;2023-05-10T07:09:53;3.58;;;1.98;;
78889;SDS011;68279;48.964;14.502;2023-05-10T07:12:18;4.45;;;2.42;;
78889;SDS011;68279;48.964;14.502;2023-05-10T07:14:44;3.83;;;2.00;;
78889;SDS011;68279;48.964;14.502;2023-05-10T07:17:10;5.47;;;3.17;;
78889;SDS011;68279;48.964;14.502;2023-05-10T07:19:36;4.47;;;1.88;;
78889;SDS011;68279;48.964;14.502;2023-05-10T07:22:02;5.15;;;2.08;;
78889;SDS011;68279;48.964;14.502;2023-05-10T07:24:28;4.25;;;1.77;;
78889;SDS011;68279;48.964;14.502;2023-05-10T07:26:53;2.92;;;2.13;;
78889;SDS011;68279;48.964;14.502;2023-05-10T07:29:19;5.60;;;2.45;;
78889;SDS011;68279;48.964;14.502;2023-05-10T07:31:44;4.15;;;2.25;;
78889;SDS011;68279;48.964;14.502;2023-05-10T07:34:10;3.45;;;1.95;;
78889;SDS011;68279;48.964;14.502;2023-05-10T07:36:36;4.68;;;2.40;;
78889;SDS011;68279;48.964;14.502;2023-05-10T07:39:01;4.13;;;2.58;;
78889;SDS011;68279;48.964;14.502;2023-05-10T07:41:28;4.78;;;2.13;;
78889;SDS011;68279;48.964;14.502;2023-05-10T07:43:53;3.95;;;1.63;;
78889;SDS011;68279;48.964;14.502;2023-05-10T07:46:19;4.50;;;2.55;;
78889;SDS011;68279;48.964;14.502;2023-05-10T07:48:45;3.92;;;2.30;;
78889;SDS011;68279;48.964;14.502;2023-05-10T07:51:11;5.75;;;2.35;;
78889;SDS011;68279;48.964;14.502;2023-05-10T07:53:37;4.05;;;2.00;;
78889;SDS011;68279;48.964;14.502;2023-05-10T07:58:47;4.00;;;2.53;;
78889;SDS011;68279;48.964;14.502;2023-05-10T08:01:13;4.90;;;2.28;;
78889;SDS011;68279;48.964;14.502;2023-05-10T08:03:38;4.32;;;2.40;;
78889;SDS011;68279;48.964;14.502;2023-05-10T08:06:04;4.75;;;2.25;;
78889;SDS011;68279;48.964;14.502;2023-05-10T08:08:30;4.03;;;2.28;;
78889;SDS011;68279;48.964;14.502;2023-05-10T08:10:55;4.40;;;2.05;;
78889;SDS011;68279;48.964;14.502;2023-05-10T08:13:21;3.63;;;2.28;;
78889;SDS011;68279;48.964;14.502;2023-05-10T08:15:47;3.53;;;2.65;;
78889;SDS011;68279;48.964;14.502;2023-05-10T08:18:13;5.40;;;2.40;;
78889;SDS011;68279;48.964;14.502;2023-05-10T08:20:38;3.53;;;2.03;;
78889;SDS011;68279;48.964;14.502;2023-05-10T08:23:04;4.03;;;2.45;;
78889;SDS011;68279;48.964;14.502;2023-05-10T08:25:31;3.95;;;2.42;;
78889;SDS011;68279;48.964;14.502;2023-05-10T08:27:56;3.70;;;2.70;;
78889;SDS011;68279;48.964;14.502;2023-05-10T08:30:22;10.90;;;2.97;;
78889;SDS011;68279;48.964;14.502;2023-05-10T08:32:47;4.65;;;2.38;;
78889;SDS011;68279;48.964;14.502;2023-05-10T08:35:13;3.50;;;2.03;;
78889;SDS011;68279;48.964;14.502;2023-05-10T08:37:38;4.55;;;2.38;;
78889;SDS011;68279;48.964;14.502;2023-05-10T08:40:04;4.38;;;2.17;;
78889;SDS011;68279;48.964;14.502;2023-05-10T08:42:31;3.80;;;2.45;;
78889;SDS011;68279;48.964;14.502;2023-05-10T08:45:01;4.47;;;2.47;;
78889;SDS011;68279;48.964;14.502;2023-05-10T08:47:28;4.18;;;2.53;;
78889;SDS011;68279;48.964;14.502;2023-05-10T08:49:54;4.47;;;2.63;;
78889;SDS011;68279;48.964;14.502;2023-05-10T08:52:20;4.90;;;2.75;;
78889;SDS011;68279;48.964;14.502;2023-05-10T08:54:49;5.65;;;2.85;;
78889;SDS011;68279;48.964;14.502;2023-05-10T08:57:15;3.78;;;2.25;;
78889;SDS011;68279;48.964;14.502;2023-05-10T08:59:40;4.70;;;2.85;;
78889;SDS011;68279;48.964;14.502;2023-05-10T09:02:06;4.60;;;3.00;;
78889;SDS011;68279;48.964;14.502;2023-05-10T09:04:35;4.43;;;2.75;;
78889;SDS011;68279;48.964;14.502;2023-05-10T09:07:01;4.88;;;2.60;;
78889;SDS011;68279;48.964;14.502;2023-05-10T09:09:26;4.40;;;2.95;;
78889;SDS011;68279;48.964;14.502;2023-05-10T09:11:52;4.50;;;2.97;;
78889;SDS011;68279;48.964;14.502;2023-05-10T09:14:19;3.10;;;2.10;;
78889;SDS011;68279;48.964;14.502;2023-05-10T09:16:45;4.47;;;2.78;;
78889;SDS011;68279;48.964;14.502;2023-05-10T09:19:11;4.43;;;2.55;;
78889;SDS011;68279;48.964;14.502;2023-05-10T09:21:36;4.10;;;2.42;;
78889;SDS011;68279;48.964;14.502;2023-05-10T09:24:06;5.07;;;3.53;;
78889;SDS011;68279;48.964;14.502;2023-05-10T09:26:33;4.32;;;3.03;;
78889;SDS011;68279;48.964;14.502;2023-05-10T09:29:00;4.43;;;2.75;;
78889;SDS011;68279;48.964;14.502;2023-05-10T09:34:17;4.13;;;3.05;;
78889;SDS011;68279;48.964;14.502;2023-05-10T09:36:53;4.68;;;2.70;;
78889;SDS011;68279;48.964;14.502;2023-05-10T09:39:20;4.00;;;2.83;;
78889;SDS011;68279;48.964;14.502;2023-05-10T09:41:46;4.97;;;2.78;;
78889;SDS011;68279;48.964;14.502;2023-05-10T09:44:14;5.38;;;2.63;;
78889;SDS011;68279;48.964;14.502;2023-05-10T09:46:43;4.70;;;2.88;;
78889;SDS011;68279;48.964;14.502;2023-05-10T09:49:14;5.32;;;2.65;;
78889;SDS011;68279;48.964;14.502;2023-05-10T09:51:39;9.10;;;2.72;;
78889;SDS011;68279;48.964;14.502;2023-05-10T09:54:09;4.47;;;2.63;;
78889;SDS011;68279;48.964;14.502;2023-05-10T09:56:35;5.97;;;2.92;;
78889;SDS011;68279;48.964;14.502;2023-05-10T09:59:04;5.20;;;2.63;;
78889;SDS011;68279;48.964;14.502;2023-05-10T10:01:30;3.97;;;2.58;;
78889;SDS011;68279;48.964;14.502;2023-05-10T10:03:56;3.90;;;2.45;;
78889;SDS011;68279;48.964;14.502;2023-05-10T10:06:23;5.47;;;3.30;;
78889;SDS011;68279;48.964;14.502;2023-05-10T10:08:50;5.38;;;3.15;;
78889;SDS011;68279;48.964;14.502;2023-05-10T10:11:16;5.53;;;3.45;;
78889;SDS011;68279;48.964;14.502;2023-05-10T10:13:42;6.18;;;4.07;;
78889;SDS011;68279;48.964;14.502;2023-05-10T10:16:08;6.25;;;3.72;;
78889;SDS011;68279;48.964;14.502;2023-05-10T10:18:35;6.10;;;3.78;;
78889;SDS011;68279;48.964;14.502;2023-05-10T10:21:05;7.00;;;4.10;;
78889;SDS011;68279;48.964;14.502;2023-05-10T10:23:34;5.72;;;3.55;;
78889;SDS011;68279;48.964;14.502;2023-05-10T10:26:01;6.25;;;3.72;;
78889;SDS011;68279;48.964;14.502;2023-05-10T10:31:19;6.40;;;4.18;;
78889;SDS011;68279;48.964;14.502;2023-05-10T10:34:38;6.05;;;3.85;;
78889;SDS011;68279;48.964;14.502;2023-05-10T10:36:53;6.88;;;3.90;;
78889;SDS011;68279;48.964;14.502;2023-05-10T10:39:20;7.03;;;4.13;;
78889;SDS011;68279;48.964;14.502;2023-05-10T10:41:50;6.45;;;3.70;;
78889;SDS011;68279;48.964;14.502;2023-05-10T11:00:18;6.10;;;3.45;;
78889;SDS011;68279;48.964;14.502;2023-05-10T11:02:46;5.93;;;3.33;;
78889;SDS011;68279;48.964;14.502;2023-05-10T11:07:55;4.70;;;3.08;;
78889;SDS011;68279;48.964;14.502;2023-05-10T11:10:22;6.22;;;3.60;;
78889;SDS011;68279;48.964;14.502;2023-05-10T11:12:59;6.20;;;3.55;;
78889;SDS011;68279;48.964;14.502;2023-05-10T11:15:35;6.20;;;3.47;;
78889;SDS011;68279;48.964;14.502;2023-05-10T11:18:23;8.15;;;3.15;;
78889;SDS011;68279;48.964;14.502;2023-05-10T11:20:51;4.70;;;2.80;;
78889;SDS011;68279;48.964;14.502;2023-05-10T11:23:52;8.13;;;3.65;;
78889;SDS011;68279;48.964;14.502;2023-05-10T11:26:22;4.90;;;3.10;;
78889;SDS011;68279;48.964;14.502;2023-05-10T11:28:55;5.15;;;3.95;;
78889;SDS011;68279;48.964;14.502;2023-05-10T11:31:20;6.18;;;3.60;;
78889;SDS011;68279;48.964;14.502;2023-05-10T11:33:47;5.60;;;3.08;;
78889;SDS011;68279;48.964;14.502;2023-05-10T11:38:44;6.10;;;3.00;;
78889;SDS011;68279;48.964;14.502;2023-05-10T11:41:12;4.90;;;3.45;;
78889;SDS011;68279;48.964;14.502;2023-05-10T11:43:46;5.95;;;4.13;;
78889;SDS011;68279;48.964;14.502;2023-05-10T11:46:15;5.53;;;3.50;;
78889;SDS011;68279;48.964;14.502;2023-05-10T11:48:42;5.13;;;2.92;;
78889;SDS011;68279;48.964;14.502;2023-05-10T11:51:08;6.75;;;3.05;;
78889;SDS011;68279;48.964;14.502;2023-05-10T11:53:35;8.35;;;2.67;;
78889;SDS011;68279;48.964;14.502;2023-05-10T11:56:07;5.88;;;2.90;;
78889;SDS011;68279;48.964;14.502;2023-05-10T11:58:35;5.25;;;2.67;;
78889;SDS011;68279;48.964;14.502;2023-05-10T12:01:02;5.90;;;3.42;;
78889;SDS011;68279;48.964;14.502;2023-05-10T12:03:29;5.85;;;2.90;;
78889;SDS011;68279;48.964;14.502;2023-05-10T12:05:55;5.10;;;2.97;;
78889;SDS011;68279;48.964;14.502;2023-05-10T12:08:23;5.53;;;2.65;;
78889;SDS011;68279;48.964;14.502;2023-05-10T12:10:50;9.32;;;2.95;;
78889;SDS011;68279;48.964;14.502;2023-05-10T12:13:22;7.72;;;2.83;;
78889;SDS011;68279;48.964;14.502;2023-05-10T12:15:49;4.72;;;2.97;;
78889;SDS011;68279;48.964;14.502;2023-05-10T12:18:23;4.18;;;2.05;;
78889;SDS011;68279;48.964;14.502;2023-05-10T12:20:52;4.57;;;2.67;;
78889;SDS011;68279;48.964;14.502;2023-05-10T12:23:21;7.75;;;2.67;;
78889;SDS011;68279;48.964;14.502;2023-05-10T12:25:46;5.55;;;2.85;;
78889;SDS011;68279;48.964;14.502;2023-05-10T12:28:12;4.40;;;2.35;;
78889;SDS011;68279;48.964;14.502;2023-05-10T12:30:38;4.97;;;2.40;;
78889;SDS011;68279;48.964;14.502;2023-05-10T12:33:07;4.05;;;2.50;;
78889;SDS011;68279;48.964;14.502;2023-05-10T12:35:51;5.38;;;2.10;;
78889;SDS011;68279;48.964;14.502;2023-05-10T12:38:28;4.03;;;2.25;;
78889;SDS011;68279;48.964;14.502;2023-05-10T12:41:02;12.80;;;2.38;;
78889;SDS011;68279;48.964;14.502;2023-05-10T12:45:55;2.90;;;1.35;;
78889;SDS011;68279;48.964;14.502;2023-05-10T12:48:21;2.47;;;1.20;;
78889;SDS011;68279;48.964;14.502;2023-05-10T12:50:47;3.00;;;1.50;;
78889;SDS011;68279;48.964;14.502;2023-05-10T12:53:15;2.38;;;1.00;;
78889;SDS011;68279;48.964;14.502;2023-05-10T12:55:42;2.40;;;1.05;;
78889;SDS011;68279;48.964;14.502;2023-05-10T12:58:08;2.10;;;0.90;;
78889;SDS011;68279;48.964;14.502;2023-05-10T13:00:33;3.53;;;1.25;;
78889;SDS011;68279;48.964;14.502;2023-05-10T13:02:59;2.58;;;0.93;;
78889;SDS011;68279;48.964;14.502;2023-05-10T13:05:25;1.77;;;0.93;;
78889;SDS011;68279;48.964;14.502;2023-05-10T13:07:51;2.85;;;1.02;;
78889;SDS011;68279;48.964;14.502;2023-05-10T13:10:17;2.88;;;1.42;;
78889;SDS011;68279;48.964;14.502;2023-05-10T13:12:43;3.60;;;1.25;;
78889;SDS011;68279;48.964;14.502;2023-05-10T13:15:08;3.58;;;1.35;;
78889;SDS011;68279;48.964;14.502;2023-05-10T13:17:34;2.13;;;1.00;;
78889;SDS011;68279;48.964;14.502;2023-05-10T13:20:00;2.40;;;1.10;;
78889;SDS011;68279;48.964;14.502;2023-05-10T13:22:25;1.98;;;0.90;;
78889;SDS011;68279;48.964;14.502;2023-05-10T13:24:51;4.43;;;1.25;;
78889;SDS011;68279;48.964;14.502;2023-05-10T13:27:17;1.42;;;0.75;;
78889;SDS011;68279;48.964;14.502;2023-05-10T13:29:42;2.47;;;0.70;;
78889;SDS011;68279;48.964;14.502;2023-05-10T13:32:07;2.22;;;1.13;;
78889;SDS011;68279;48.964;14.502;2023-05-10T13:34:33;1.75;;;0.77;;
78889;SDS011;68279;48.964;14.502;2023-05-10T13:37:01;3.67;;;1.08;;
78889;SDS011;68279;48.964;14.502;2023-05-10T13:39:26;2.80;;;0.70;;
78889;SDS011;68279;48.964;14.502;2023-05-10T13:41:52;2.00;;;0.88;;
78889;SDS011;68279;48.964;14.502;2023-05-10T13:44:19;2.78;;;0.88;;
78889;SDS011;68279;48.964;14.502;2023-05-10T13:46:45;5.15;;;1.40;;
78889;SDS011;68279;48.964;14.502;2023-05-10T13:49:11;2.00;;;0.93;;
78889;SDS011;68279;48.964;14.502;2023-05-10T13:51:37;2.55;;;1.08;;
78889;SDS011;68279;48.964;14.502;2023-05-10T13:54:03;2.88;;;1.23;;
78889;SDS011;68279;48.964;14.502;2023-05-10T13:56:28;2.80;;;1.40;;
78889;SDS011;68279;48.964;14.502;2023-05-10T13:58:55;2.83;;;1.58;;
78889;SDS011;68279;48.964;14.502;2023-05-10T14:01:22;2.45;;;1.33;;
78889;SDS011;68279;48.964;14.502;2023-05-10T14:03:48;2.28;;;1.33;;
78889;SDS011;68279;48.964;14.502;2023-05-10T14:06:13;2.72;;;1.45;;
78889;SDS011;68279;48.964;14.502;2023-05-10T14:08:39;3.33;;;1.73;;
78889;SDS011;68279;48.964;14.502;2023-05-10T14:11:05;2.22;;;1.42;;
78889;SDS011;68279;48.964;14.502;2023-05-10T14:13:30;3.05;;;1.70;;
78889;SDS011;68279;48.964;14.502;2023-05-10T14:15:56;2.47;;;1.10;;
78889;SDS011;68279;48.964;14.502;2023-05-10T14:18:22;3.20;;;1.02;;
78889;SDS011;68279;48.964;14.502;2023-05-10T14:20:47;2.13;;;1.30;;
78889;SDS011;68279;48.964;14.502;2023-05-10T14:23:13;4.05;;;1.08;;
78889;SDS011;68279;48.964;14.502;2023-05-10T14:25:41;4.63;;;1.48;;
78889;SDS011;68279;48.964;14.502;2023-05-10T14:28:07;2.58;;;0.98;;
78889;SDS011;68279;48.964;14.502;2023-05-10T14:30:32;2.22;;;1.00;;
78889;SDS011;68279;48.964;14.502;2023-05-10T14:32:59;2.85;;;1.30;;
78889;SDS011;68279;48.964;14.502;2023-05-10T14:35:26;1.88;;;1.02;;
78889;SDS011;68279;48.964;14.502;2023-05-10T14:37:53;2.28;;;1.23;;
78889;SDS011;68279;48.964;14.502;2023-05-10T14:40:19;4.05;;;1.38;;
78889;SDS011;68279;48.964;14.502;2023-05-10T14:42:46;3.05;;;1.55;;
78889;SDS011;68279;48.964;14.502;2023-05-10T14:45:11;3.33;;;1.60;;
78889;SDS011;68279;48.964;14.502;2023-05-10T14:47:38;3.08;;;1.30;;
78889;SDS011;68279;48.964;14.502;2023-05-10T14:50:03;2.80;;;1.85;;
78889;SDS011;68279;48.964;14.502;2023-05-10T14:52:29;2.88;;;1.13;;
78889;SDS011;68279;48.964;14.502;2023-05-10T14:54:55;2.33;;;1.25;;
78889;SDS011;68279;48.964;14.502;2023-05-10T14:57:20;2.70;;;1.48;;
78889;SDS011;68279;48.964;14.502;2023-05-10T14:59:46;2.80;;;1.60;;
78889;SDS011;68279;48.964;14.502;2023-05-10T15:02:11;2.65;;;1.33;;
78889;SDS011;68279;48.964;14.502;2023-05-10T15:04:38;2.65;;;1.13;;
78889;SDS011;68279;48.964;14.502;2023-05-10T15:07:04;2.35;;;1.20;;
78889;SDS011;68279;48.964;14.502;2023-05-10T15:09:29;3.05;;;1.25;;
78889;SDS011;68279;48.964;14.502;2023-05-10T15:11:55;4.78;;;2.65;;
78889;SDS011;68279;48.964;14.502;2023-05-10T15:14:21;5.38;;;2.85;;
78889;SDS011;68279;48.964;14.502;2023-05-10T15:16:47;4.82;;;2.70;;
78889;SDS011;68279;48.964;14.502;2023-05-10T15:19:13;4.40;;;2.53;;
78889;SDS011;68279;48.964;14.502;2023-05-10T15:21:38;5.32;;;3.03;;
78889;SDS011;68279;48.964;14.502;2023-05-10T15:24:07;6.05;;;3.28;;
78889;SDS011;68279;48.964;14.502;2023-05-10T15:26:33;6.53;;;3.80;;
78889;SDS011;68279;48.964;14.502;2023-05-10T15:28:58;5.30;;;2.97;;